Time;durP1;ratioP1;P1;durP2;ratioP2;P2;SDS_P1;SDS_P2;PMS_P1;PMS_P2;Temp;Humidity;BMP_temperature;BMP_pressure;BME280_temperature;BME280_humidity;BME280_pressure;Samples;Min_cycle;Max_cycle;Signal;HPM_P1;HPM_P2
2022/04/04 00:00:09;;;;;;;3.65;1.60;;;;;;;;;;4895842;29;20036;-71
2022/04/04 00:02:36;;;;;;;2.92;1.30;;;;;;;;;;4904616;29;20067;-68
2022/04/04 00:05:02;;;;;;;3.50;1.30;;;;;;;;;;4895631;29;20060;-68
2022/04/04 00:07:28;;;;;;;3.33;1.20;;;;;;;;;;4896241;29;20045;-71
2022/04/04 00:09:54;;;;;;;3.90;1.23;;;;;;;;;;4896288;29;20072;-70
2022/04/04 00:12:20;;;;;;;3.15;0.85;;;;;;;;;;4896046;29;20095;-69
2022/04/04 00:14:48;;;;;;;2.80;1.00;;;;;;;;;;4896068;29;20028;-71
2022/04/04 00:17:14;;;;;;;3.53;1.45;;;;;;;;;;4895979;29;20036;-69
2022/04/04 00:19:40;;;;;;;6.30;2.10;;;;;;;;;;4899207;29;20032;-72
2022/04/04 00:22:07;;;;;;;10.15;3.17;;;;;;;;;;4899347;29;20032;-69
2022/04/04 00:24:33;;;;;;;9.05;3.00;;;;;;;;;;4899156;29;20064;-69
2022/04/04 00:26:59;;;;;;;11.38;2.28;;;;;;;;;;4899694;29;20033;-69
2022/04/04 00:29:25;;;;;;;6.03;2.22;;;;;;;;;;4898962;29;20060;-69
2022/04/04 00:31:53;;;;;;;5.72;2.35;;;;;;;;;;4899278;29;20119;-67
2022/04/04 00:34:19;;;;;;;6.40;2.20;;;;;;;;;;4914217;29;20055;-69
2022/04/04 00:36:45;;;;;;;6.32;2.10;;;;;;;;;;4918032;29;20059;-67
2022/04/04 00:39:15;;;;;;;5.68;2.13;;;;;;;;;;4918032;29;20031;-68
2022/04/04 00:41:45;;;;;;;4.90;2.08;;;;;;;;;;4916596;29;20036;-70
2022/04/04 00:44:11;;;;;;;7.53;2.75;;;;;;;;;;4917864;29;20484;-68
2022/04/04 00:46:41;;;;;;;6.43;2.70;;;;;;;;;;4917662;29;20036;-68
2022/04/04 00:49:08;;;;;;;6.65;2.92;;;;;;;;;;4917711;29;20039;-73
2022/04/04 00:51:38;;;;;;;6.70;2.70;;;;;;;;;;4918058;29;20099;-69
2022/04/04 00:54:05;;;;;;;4.63;2.35;;;;;;;;;;4917377;29;20067;-70
2022/04/04 00:56:33;;;;;;;5.05;2.75;;;;;;;;;;4917718;29;20387;-71
2022/04/04 00:59:00;;;;;;;5.07;2.42;;;;;;;;;;4917905;29;20386;-69
2022/04/04 01:01:26;;;;;;;5.93;2.20;;;;;;;;;;4918061;29;20075;-70
2022/04/04 01:03:52;;;;;;;4.32;2.33;;;;;;;;;;4917870;29;20043;-71
2022/04/04 01:06:18;;;;;;;5.05;2.30;;;;;;;;;;4917535;29;20024;-70
2022/04/04 01:08:44;;;;;;;7.25;2.30;;;;;;;;;;4917621;29;20032;-72
2022/04/04 01:11:11;;;;;;;8.50;2.33;;;;;;;;;;4917608;29;20480;-68
2022/04/04 01:13:43;;;;;;;5.60;2.35;;;;;;;;;;4917751;29;20047;-69
2022/04/04 01:16:09;;;;;;;5.20;2.10;;;;;;;;;;4917314;29;20032;-69
2022/04/04 01:18:35;;;;;;;5.50;2.22;;;;;;;;;;4916995;29;20032;-69
2022/04/04 01:21:02;;;;;;;3.92;2.00;;;;;;;;;;4917093;29;20028;-69
2022/04/04 01:23:35;;;;;;;4.15;2.10;;;;;;;;;;4917140;29;20154;-68
2022/04/04 01:26:00;;;;;;;4.93;2.00;;;;;;;;;;4917179;29;20039;-67
2022/04/04 01:28:26;;;;;;;22.52;3.03;;;;;;;;;;4915562;29;20491;-66
2022/04/04 01:30:52;;;;;;;9.90;2.70;;;;;;;;;;4917302;29;20036;-68
2022/04/04 01:33:18;;;;;;;4.05;2.00;;;;;;;;;;4916600;29;20032;-68
2022/04/04 01:35:44;;;;;;;6.88;2.15;;;;;;;;;;4916202;29;20056;-69
2022/04/04 01:38:10;;;;;;;8.18;2.75;;;;;;;;;;4917416;29;20178;-69
2022/04/04 01:40:36;;;;;;;10.10;2.67;;;;;;;;;;4916951;29;20036;-67
2022/04/04 01:43:02;;;;;;;7.65;2.40;;;;;;;;;;4915745;29;20439;-67
2022/04/04 01:48:12;;;;;;;5.80;2.38;;;;;;;;;;4916852;29;20043;-67
2022/04/04 01:50:40;;;;;;;4.20;2.08;;;;;;;;;;4916936;29;20384;-68
2022/04/04 01:53:39;;;;;;;6.85;2.28;;;;;;;;;;4916870;29;20036;-68
2022/04/04 01:56:01;;;;;;;6.25;2.08;;;;;;;;;;4917369;29;20059;-69
2022/04/04 01:58:27;;;;;;;6.43;1.92;;;;;;;;;;4916082;29;20024;-67
2022/04/04 02:00:58;;;;;;;3.83;1.90;;;;;;;;;;4917639;29;20124;-69
2022/04/04 02:03:25;;;;;;;6.68;2.40;;;;;;;;;;4916669;29;20484;-69
2022/04/04 02:05:51;;;;;;;5.55;2.15;;;;;;;;;;4917764;29;20123;-69
2022/04/04 02:08:17;;;;;;;4.88;2.50;;;;;;;;;;4917823;29;20040;-67
2022/04/04 02:10:44;;;;;;;6.22;2.38;;;;;;;;;;4917627;29;20035;-67
2022/04/04 02:13:10;;;;;;;6.35;2.20;;;;;;;;;;4917544;29;20028;-69
2022/04/04 02:15:36;;;;;;;4.55;2.08;;;;;;;;;;4917490;29;20091;-70
2022/04/04 02:18:03;;;;;;;7.30;2.50;;;;;;;;;;4917491;29;20527;-69
2022/04/04 02:20:28;;;;;;;9.00;2.45;;;;;;;;;;4917777;29;20115;-70
2022/04/04 02:22:56;;;;;;;6.45;2.10;;;;;;;;;;4917389;29;20491;-67
2022/04/04 02:25:22;;;;;;;8.18;2.63;;;;;;;;;;4917090;29;20399;-70
2022/04/04 02:27:48;;;;;;;8.23;2.45;;;;;;;;;;4917080;29;20403;-70
2022/04/04 02:30:14;;;;;;;7.43;2.40;;;;;;;;;;4916026;29;20468;-70
2022/04/04 02:32:40;;;;;;;11.73;2.60;;;;;;;;;;4917144;29;20083;-69
2022/04/04 02:35:06;;;;;;;6.75;2.50;;;;;;;;;;4917107;29;20036;-68
2022/04/04 02:37:32;;;;;;;7.55;2.38;;;;;;;;;;4913894;29;20119;-70
2022/04/04 02:39:58;;;;;;;4.55;2.17;;;;;;;;;;4913449;29;20059;-69
2022/04/04 02:42:24;;;;;;;6.25;2.90;;;;;;;;;;4899406;29;20087;-69
2022/04/04 02:44:50;;;;;;;9.02;2.88;;;;;;;;;;4900652;29;20116;-68
2022/04/04 02:47:16;;;;;;;8.02;2.70;;;;;;;;;;4897489;29;20047;-67
2022/04/04 02:49:42;;;;;;;5.45;2.65;;;;;;;;;;4897133;29;20024;-66
2022/04/04 02:52:08;;;;;;;8.50;3.08;;;;;;;;;;4897065;29;20079;-69
2022/04/04 02:54:34;;;;;;;9.35;2.40;;;;;;;;;;4895947;29;20036;-69
2022/04/04 02:57:00;;;;;;;15.32;2.90;;;;;;;;;;4907339;29;20035;-68
2022/04/04 02:59:25;;;;;;;23.48;3.10;;;;;;;;;;4915575;29;20480;-68
2022/04/04 03:01:51;;;;;;;3.35;1.60;;;;;;;;;;4915676;29;20127;-67
2022/04/04 03:04:18;;;;;;;7.57;2.20;;;;;;;;;;4915550;29;20365;-68
2022/04/04 03:06:44;;;;;;;5.65;1.70;;;;;;;;;;4915386;29;20088;-67
2022/04/04 03:09:10;;;;;;;3.78;1.52;;;;;;;;;;4915587;29;20028;-67
2022/04/04 03:11:37;;;;;;;3.28;1.15;;;;;;;;;;4910830;29;20040;-67
2022/04/04 03:14:05;;;;;;;3.28;1.40;;;;;;;;;;4915296;29;20043;-65
2022/04/04 03:16:31;;;;;;;3.38;1.30;;;;;;;;;;4915222;29;20123;-68
2022/04/04 03:18:59;;;;;;;2.78;1.25;;;;;;;;;;4915027;29;20059;-67
2022/04/04 03:21:29;;;;;;;7.63;2.00;;;;;;;;;;4913929;29;20092;-68
2022/04/04 03:23:54;;;;;;;6.65;2.00;;;;;;;;;;4915146;29;20028;-70
2022/04/04 03:26:20;;;;;;;6.32;1.65;;;;;;;;;;4915140;29;20084;-67
2022/04/04 03:28:46;;;;;;;5.68;1.60;;;;;;;;;;4913637;29;20106;-67
2022/04/04 03:31:13;;;;;;;7.30;2.08;;;;;;;;;;4914895;29;20032;-68
2022/04/04 03:33:39;;;;;;;4.63;1.70;;;;;;;;;;4914788;29;20092;-67
2022/04/04 03:36:06;;;;;;;5.80;2.10;;;;;;;;;;4914840;29;20028;-67
2022/04/04 03:38:32;;;;;;;12.05;3.10;;;;;;;;;;4915006;29;20036;-68
2022/04/04 03:40:58;;;;;;;7.18;3.00;;;;;;;;;;4914835;29;20047;-67
2022/04/04 03:43:25;;;;;;;7.25;2.90;;;;;;;;;;4914840;29;20032;-70
2022/04/04 03:45:51;;;;;;;5.57;2.78;;;;;;;;;;4914429;29;20111;-67
2022/04/04 03:48:17;;;;;;;13.93;3.67;;;;;;;;;;4915316;29;20448;-68
2022/04/04 03:50:45;;;;;;;8.10;2.63;;;;;;;;;;4915385;29;20111;-68
2022/04/04 03:53:11;;;;;;;18.15;3.58;;;;;;;;;;4918097;29;20029;-67
2022/04/04 03:55:39;;;;;;;11.05;3.08;;;;;;;;;;4917318;29;20559;-69
2022/04/04 03:58:08;;;;;;;6.20;2.03;;;;;;;;;;4918759;29;20489;-66
2022/04/04 04:00:34;;;;;;;6.25;2.13;;;;;;;;;;4918493;29;20044;-67
2022/04/04 04:03:00;;;;;;;8.10;2.28;;;;;;;;;;4918525;29;20134;-66
2022/04/04 04:05:27;;;;;;;9.02;2.80;;;;;;;;;;4918423;29;20119;-65
2022/04/04 04:07:53;;;;;;;8.27;2.50;;;;;;;;;;4918527;29;20028;-67
2022/04/04 04:10:20;;;;;;;8.90;2.95;;;;;;;;;;4918147;29;20068;-66
2022/04/04 04:12:46;;;;;;;9.20;2.47;;;;;;;;;;4917779;29;20355;-72
2022/04/04 04:15:19;;;;;;;7.57;3.10;;;;;;;;;;4918440;29;20044;-72
2022/04/04 04:17:45;;;;;;;6.47;2.70;;;;;;;;;;4918657;29;20028;-74
2022/04/04 04:20:20;;;;;;;7.72;2.50;;;;;;;;;;4918488;29;20031;-71
2022/04/04 04:23:04;;;;;;;5.78;2.53;;;;;;;;;;4919441;29;20032;-74
2022/04/04 04:25:30;;;;;;;;;;;;;;;;;;4919807;29;20513;-73
2022/04/04 04:27:59;;;;;;;5.25;1.63;;;;;;;;;;4919725;29;20302;-72
2022/04/04 04:30:26;;;;;;;4.40;1.90;;;;;;;;;;4919064;29;20039;-71
2022/04/04 04:32:53;;;;;;;4.82;2.20;;;;;;;;;;4918840;29;20016;-72
2022/04/04 04:35:20;;;;;;;9.60;2.63;;;;;;;;;;4918603;29;20032;-73
2022/04/04 04:37:46;;;;;;;4.88;2.35;;;;;;;;;;4900445;29;20032;-70
2022/04/04 04:40:12;;;;;;;5.13;2.30;;;;;;;;;;4899677;29;20088;-69
2022/04/04 04:42:39;;;;;;;10.05;3.90;;;;;;;;;;4899361;29;20080;-72
2022/04/04 04:45:06;;;;;;;11.30;3.60;;;;;;;;;;4899020;29;20041;-72
2022/04/04 04:47:32;;;;;;;7.53;2.58;;;;;;;;;;4899126;29;20385;-72
2022/04/04 04:50:00;;;;;;;5.93;2.63;;;;;;;;;;4899430;29;20070;-73
2022/04/04 04:52:26;;;;;;;6.85;3.63;;;;;;;;;;4899413;29;20072;-72
2022/04/04 04:54:53;;;;;;;13.55;5.22;;;;;;;;;;4922152;28;20185;-74
2022/04/04 04:57:20;;;;;;;15.80;4.07;;;;;;;;;;4937040;29;20554;-75
2022/04/04 04:59:47;;;;;;;7.82;2.65;;;;;;;;;;4934815;29;20813;-74
2022/04/04 05:02:13;;;;;;;13.30;5.13;;;;;;;;;;4936877;29;20075;-72
2022/04/04 05:04:39;;;;;;;12.60;3.00;;;;;;;;;;4933620;29;20814;-73
2022/04/04 05:07:08;;;;;;;7.63;2.28;;;;;;;;;;4936237;29;20095;-72
2022/04/04 05:09:35;;;;;;;9.05;3.40;;;;;;;;;;4935333;29;20416;-74
2022/04/04 05:12:01;;;;;;;7.43;2.97;;;;;;;;;;4936803;29;20035;-72
2022/04/04 05:14:27;;;;;;;6.93;2.20;;;;;;;;;;4934823;29;20035;-73
2022/04/04 05:16:53;;;;;;;5.45;2.85;;;;;;;;;;4936697;29;20463;-72
2022/04/04 05:19:20;;;;;;;3.95;2.30;;;;;;;;;;4936955;29;20040;-73
2022/04/04 05:21:46;;;;;;;16.88;3.65;;;;;;;;;;4936964;29;20028;-74
2022/04/04 05:24:12;;;;;;;13.93;4.32;;;;;;;;;;4936662;29;20461;-72
2022/04/04 05:26:38;;;;;;;7.95;3.47;;;;;;;;;;4936111;29;20024;-74
2022/04/04 05:29:05;;;;;;;17.15;4.22;;;;;;;;;;4936861;29;20497;-73
2022/04/04 05:31:32;;;;;;;8.75;3.50;;;;;;;;;;4936796;29;20533;-73
2022/04/04 05:33:59;;;;;;;10.30;4.82;;;;;;;;;;4936735;29;20071;-72
2022/04/04 05:36:27;;;;;;;17.45;5.60;;;;;;;;;;4936586;29;20446;-72
2022/04/04 05:38:53;;;;;;;10.70;4.43;;;;;;;;;;4936727;29;20028;-72
2022/04/04 05:41:19;;;;;;;8.10;2.97;;;;;;;;;;4936996;29;20031;-72
2022/04/04 05:43:47;;;;;;;10.70;3.30;;;;;;;;;;4936814;29;20082;-75
2022/04/04 05:46:16;;;;;;;12.02;4.03;;;;;;;;;;4936970;29;20047;-74
2022/04/04 05:48:43;;;;;;;10.98;5.47;;;;;;;;;;4935529;29;20039;-74
2022/04/04 05:51:10;;;;;;;14.55;5.10;;;;;;;;;;4936765;29;20468;-73
2022/04/04 05:53:36;;;;;;;10.48;5.25;;;;;;;;;;4936145;29;20039;-73
2022/04/04 05:56:02;;;;;;;14.15;4.90;;;;;;;;;;4934649;29;20056;-74
2022/04/04 05:58:28;;;;;;;8.70;4.28;;;;;;;;;;4936272;29;20028;-73
2022/04/04 06:00:54;;;;;;;7.07;3.85;;;;;;;;;;4936156;29;20111;-73
2022/04/04 06:03:20;;;;;;;10.45;4.70;;;;;;;;;;4935709;29;20032;-73
2022/04/04 06:05:49;;;;;;;15.18;5.93;;;;;;;;;;4934895;29;20114;-72
2022/04/04 06:08:16;;;;;;;18.55;6.15;;;;;;;;;;4936269;29;20447;-71
2022/04/04 06:10:45;;;;;;;10.43;4.18;;;;;;;;;;4936135;29;20103;-70
2022/04/04 06:13:18;;;;;;;10.40;3.53;;;;;;;;;;4934666;29;20035;-72
2022/04/04 06:15:45;;;;;;;10.63;3.15;;;;;;;;;;4935603;29;20554;-73
2022/04/04 06:18:12;;;;;;;6.82;3.92;;;;;;;;;;4936339;29;20391;-70
2022/04/04 06:20:38;;;;;;;10.13;3.83;;;;;;;;;;4936369;29;20352;-73
2022/04/04 06:23:04;;;;;;;8.18;3.83;;;;;;;;;;4935978;29;20038;-73
2022/04/04 06:25:30;;;;;;;8.18;3.22;;;;;;;;;;4935754;29;20516;-71
2022/04/04 06:27:57;;;;;;;9.38;3.05;;;;;;;;;;4935612;29;20071;-74
2022/04/04 06:30:23;;;;;;;11.20;3.25;;;;;;;;;;4935571;29;20035;-74
2022/04/04 06:32:49;;;;;;;9.27;3.67;;;;;;;;;;4935684;29;20043;-72
2022/04/04 06:35:15;;;;;;;11.88;4.30;;;;;;;;;;4935491;29;20402;-73
2022/04/04 06:37:45;;;;;;;9.18;4.50;;;;;;;;;;4935490;29;20434;-72
2022/04/04 06:40:13;;;;;;;20.52;5.68;;;;;;;;;;4935410;29;20102;-74
2022/04/04 06:42:41;;;;;;;13.02;5.88;;;;;;;;;;4935529;29;20031;-73
2022/04/04 06:45:09;;;;;;;10.50;4.88;;;;;;;;;;4935141;29;20040;-72
2022/04/04 06:47:34;;;;;;;11.40;5.32;;;;;;;;;;4935336;29;20039;-74
2022/04/04 06:50:00;;;;;;;17.27;5.72;;;;;;;;;;4935266;29;20038;-72
2022/04/04 06:52:27;;;;;;;9.73;5.10;;;;;;;;;;4935764;29;20027;-74
2022/04/04 06:54:56;;;;;;;14.07;5.40;;;;;;;;;;4935540;29;20035;-73
2022/04/04 06:57:23;;;;;;;10.10;4.10;;;;;;;;;;4935436;29;20462;-73
2022/04/04 06:59:49;;;;;;;7.45;3.40;;;;;;;;;;4935531;29;20436;-75
2022/04/04 07:02:15;;;;;;;12.45;3.22;;;;;;;;;;4941701;29;20035;-76
2022/04/04 07:04:42;;;;;;;6.63;2.83;;;;;;;;;;4953946;28;20039;-69
2022/04/04 07:07:08;;;;;;;8.15;3.28;;;;;;;;;;4954207;28;20030;-73
2022/04/04 07:09:35;;;;;;;5.07;2.25;;;;;;;;;;4948641;28;20028;-71
2022/04/04 07:12:02;;;;;;;6.40;2.65;;;;;;;;;;4935355;29;20074;-73
2022/04/04 07:14:29;;;;;;;15.68;2.85;;;;;;;;;;4934726;29;20043;-73
2022/04/04 07:16:55;;;;;;;8.80;3.00;;;;;;;;;;4934712;29;20110;-70
2022/04/04 07:19:22;;;;;;;7.50;2.85;;;;;;;;;;4934477;29;20052;-72
2022/04/04 07:21:51;;;;;;;11.85;2.65;;;;;;;;;;4934207;29;20138;-71
2022/04/04 07:24:19;;;;;;;6.35;2.30;;;;;;;;;;4934464;29;20086;-73
2022/04/04 07:26:48;;;;;;;6.78;2.70;;;;;;;;;;4935949;29;20032;-72
2022/04/04 07:29:14;;;;;;;7.15;2.50;;;;;;;;;;4937910;29;20052;-73
2022/04/04 07:31:42;;;;;;;7.95;2.05;;;;;;;;;;4938249;29;20166;-72
2022/04/04 07:34:11;;;;;;;9.07;2.25;;;;;;;;;;4938198;29;20059;-72
2022/04/04 07:36:40;;;;;;;6.63;2.17;;;;;;;;;;4942588;29;20106;-75
2022/04/04 07:39:07;;;;;;;6.45;2.22;;;;;;;;;;4959745;28;20035;-73
2022/04/04 07:41:34;;;;;;;10.23;2.58;;;;;;;;;;4957946;29;20039;-74
2022/04/04 07:44:00;;;;;;;6.03;2.53;;;;;;;;;;4957780;28;20342;-76
2022/04/04 07:46:26;;;;;;;6.18;2.33;;;;;;;;;;4940196;28;20036;-74
2022/04/04 07:48:55;;;;;;;9.30;2.75;;;;;;;;;;4919407;29;20502;-73
2022/04/04 07:51:22;;;;;;;11.43;4.03;;;;;;;;;;4918064;29;20100;-74
2022/04/04 07:53:48;;;;;;;13.40;3.20;;;;;;;;;;4919242;29;20392;-73
2022/04/04 07:56:14;;;;;;;6.80;1.85;;;;;;;;;;4919273;29;20040;-72
2022/04/04 07:58:40;;;;;;;9.95;2.60;;;;;;;;;;4918294;29;20036;-75
2022/04/04 08:01:05;;;;;;;4.50;2.17;;;;;;;;;;4918746;29;20079;-75
2022/04/04 08:03:31;;;;;;;8.07;2.17;;;;;;;;;;4918819;29;20043;-75
2022/04/04 08:05:57;;;;;;;7.63;1.92;;;;;;;;;;4918648;29;20463;-74
2022/04/04 08:08:24;;;;;;;6.50;2.30;;;;;;;;;;4918871;29;20042;-75
2022/04/04 08:10:50;;;;;;;5.55;1.90;;;;;;;;;;4918923;29;20028;-72
2022/04/04 08:13:16;;;;;;;10.80;1.95;;;;;;;;;;4918649;29;20476;-73
2022/04/04 08:15:42;;;;;;;6.03;2.22;;;;;;;;;;4918052;29;20025;-71
2022/04/04 08:18:08;;;;;;;11.65;2.60;;;;;;;;;;4918633;29;20043;-76
2022/04/04 08:20:34;;;;;;;7.03;2.03;;;;;;;;;;4918788;29;20036;-73
2022/04/04 08:23:00;;;;;;;6.63;2.17;;;;;;;;;;4918562;29;20036;-73
2022/04/04 08:25:26;;;;;;;4.55;1.80;;;;;;;;;;4931966;29;20027;-73
2022/04/04 08:27:52;;;;;;;6.38;2.25;;;;;;;;;;4956576;28;20059;-72
2022/04/04 08:30:18;;;;;;;11.65;2.42;;;;;;;;;;4956611;28;20498;-72
2022/04/04 08:32:45;;;;;;;3.63;2.10;;;;;;;;;;4956447;28;20042;-74
2022/04/04 08:35:13;;;;;;;5.47;1.75;;;;;;;;;;4956136;28;20027;-74
2022/04/04 08:37:41;;;;;;;7.60;2.00;;;;;;;;;;4956142;28;20066;-74
2022/04/04 08:40:09;;;;;;;4.50;1.35;;;;;;;;;;4955921;28;20489;-74
2022/04/04 08:42:36;;;;;;;3.10;1.58;;;;;;;;;;4955272;29;20062;-75
2022/04/04 08:45:04;;;;;;;5.93;1.65;;;;;;;;;;4956346;28;20070;-73
2022/04/04 08:47:31;;;;;;;5.32;1.92;;;;;;;;;;4956237;28;20451;-74
2022/04/04 08:49:57;;;;;;;3.97;1.23;;;;;;;;;;4956099;28;20055;-73
2022/04/04 08:52:24;;;;;;;4.20;1.27;;;;;;;;;;4956228;28;20042;-72
2022/04/04 08:54:51;;;;;;;3.78;1.50;;;;;;;;;;4956302;28;20023;-75
2022/04/04 08:57:17;;;;;;;7.88;2.00;;;;;;;;;;4956776;28;20038;-73
2022/04/04 08:59:43;;;;;;;6.95;1.55;;;;;;;;;;4956427;28;20057;-75
2022/04/04 09:02:11;;;;;;;8.43;2.05;;;;;;;;;;4956253;28;20039;-75
2022/04/04 09:04:38;;;;;;;5.57;1.58;;;;;;;;;;4955547;28;20165;-69
2022/04/04 09:07:09;;;;;;;4.20;1.42;;;;;;;;;;4955935;28;20039;-74
2022/04/04 09:09:37;;;;;;;7.00;1.90;;;;;;;;;;4955830;28;20048;-74
2022/04/04 09:12:12;;;;;;;7.15;1.70;;;;;;;;;;4955629;28;20027;-71
2022/04/04 09:14:54;;;;;;;10.73;2.05;;;;;;;;;;4956051;28;20028;-72
2022/04/04 09:17:32;;;;;;;8.35;1.98;;;;;;;;;;4955953;28;20039;-73
2022/04/04 09:19:58;;;;;;;4.18;1.50;;;;;;;;;;4956120;29;20422;-74
2022/04/04 09:22:25;;;;;;;5.80;1.42;;;;;;;;;;4956268;28;20114;-73
2022/04/04 09:24:56;;;;;;;6.78;1.63;;;;;;;;;;4955711;28;20126;-74
2022/04/04 09:27:27;;;;;;;6.65;1.88;;;;;;;;;;4954928;29;20036;-74
2022/04/04 09:29:55;;;;;;;5.88;1.88;;;;;;;;;;4956284;28;20039;-72
2022/04/04 09:32:40;;;;;;;5.28;1.75;;;;;;;;;;4955351;28;20409;-71
2022/04/04 09:35:14;;;;;;;6.07;1.70;;;;;;;;;;4954488;28;20031;-73
2022/04/04 09:37:42;;;;;;;4.13;1.48;;;;;;;;;;4954840;28;20031;-75
2022/04/04 09:40:18;;;;;;;5.97;1.50;;;;;;;;;;4955595;28;20109;-73
2022/04/04 09:42:53;;;;;;;8.55;1.60;;;;;;;;;;4954063;29;20110;-71
2022/04/04 09:45:22;;;;;;;5.28;1.48;;;;;;;;;;4955346;28;20054;-70
2022/04/04 09:47:51;;;;;;;4.50;1.60;;;;;;;;;;4954952;28;20042;-70
2022/04/04 09:50:45;;;;;;;9.85;1.88;;;;;;;;;;4955031;28;20035;-71
2022/04/04 09:53:15;;;;;;;7.18;1.60;;;;;;;;;;4953814;29;20486;-70
2022/04/04 09:55:49;;;;;;;6.97;1.63;;;;;;;;;;4954956;28;20039;-71
2022/04/04 09:58:20;;;;;;;6.72;1.70;;;;;;;;;;4951859;28;20035;-76
2022/04/04 10:00:50;;;;;;;7.55;1.80;;;;;;;;;;4955168;28;20185;-72
2022/04/04 10:03:17;;;;;;;5.05;1.60;;;;;;;;;;4954888;28;20028;-72
2022/04/04 10:05:44;;;;;;;6.95;1.83;;;;;;;;;;4954713;28;20054;-71
2022/04/04 10:08:15;;;;;;;4.80;1.45;;;;;;;;;;4954974;28;20029;-70
2022/04/04 10:10:43;;;;;;;3.83;1.52;;;;;;;;;;4953428;29;20163;-70
2022/04/04 10:13:13;;;;;;;5.30;1.88;;;;;;;;;;4954749;28;20111;-73
2022/04/04 10:15:39;;;;;;;7.03;1.73;;;;;;;;;;4955182;28;20444;-71
2022/04/04 10:18:06;;;;;;;10.32;1.58;;;;;;;;;;4954890;28;20045;-74
2022/04/04 10:20:33;;;;;;;4.35;1.30;;;;;;;;;;4954747;28;20028;-70
2022/04/04 10:23:00;;;;;;;6.18;1.50;;;;;;;;;;4954806;28;20087;-70
2022/04/04 10:25:30;;;;;;;3.53;1.48;;;;;;;;;;4954107;28;20043;-72
2022/04/04 10:27:56;;;;;;;8.55;2.78;;;;;;;;;;4954264;28;20126;-73
2022/04/04 10:30:40;;;;;;;10.18;2.33;;;;;;;;;;4954198;28;20168;-75
2022/04/04 10:33:23;;;;;;;7.38;1.17;;;;;;;;;;4954449;28;20110;-72
2022/04/04 10:36:08;;;;;;;6.18;1.50;;;;;;;;;;4936255;28;20047;-72
2022/04/04 10:38:46;;;;;;;7.20;1.40;;;;;;;;;;4935632;29;20119;-76
2022/04/04 10:41:25;;;;;;;7.22;1.00;;;;;;;;;;4935810;29;20418;-72
2022/04/04 10:43:53;;;;;;;4.38;1.85;;;;;;;;;;4935747;29;20407;-73
2022/04/04 10:46:20;;;;;;;4.38;1.00;;;;;;;;;;4935482;29;20027;-73
2022/04/04 10:48:58;;;;;;;5.47;1.20;;;;;;;;;;4935209;29;20095;-73
2022/04/04 10:51:36;;;;;;;2.65;0.95;;;;;;;;;;4934888;29;20386;-71
2022/04/04 10:54:05;;;;;;;1.85;0.90;;;;;;;;;;4935140;29;20043;-71
2022/04/04 10:56:33;;;;;;;6.18;1.27;;;;;;;;;;4934817;29;20054;-75
2022/04/04 10:59:28;;;;;;;2.63;0.93;;;;;;;;;;4934884;29;20095;-70
2022/04/04 11:01:59;;;;;;;6.72;1.27;;;;;;;;;;4928687;29;20131;-75
2022/04/04 11:04:30;;;;;;;7.57;2.40;;;;;;;;;;4935313;29;20099;-75
2022/04/04 11:10:06;;;;;;;4.63;1.50;;;;;;;;;;4935239;29;20040;-71
2022/04/04 11:13:04;;;;;;;3.75;1.20;;;;;;;;;;4934962;29;20036;-70
2022/04/04 11:15:42;;;;;;;3.92;0.90;;;;;;;;;;4934833;29;20098;-71
2022/04/04 11:18:10;;;;;;;3.13;0.80;;;;;;;;;;4935041;29;20124;-71
2022/04/04 11:20:46;;;;;;;2.55;1.10;;;;;;;;;;4935005;29;20028;-75
2022/04/04 11:23:12;;;;;;;9.57;2.03;;;;;;;;;;4935000;29;20060;-73
2022/04/04 11:25:52;;;;;;;4.93;1.35;;;;;;;;;;4934996;29;20094;-72
2022/04/04 11:28:22;;;;;;;3.42;1.08;;;;;;;;;;4934937;29;20054;-72
2022/04/04 11:31:03;;;;;;;4.05;1.25;;;;;;;;;;4934876;29;20042;-69
2022/04/04 11:33:29;;;;;;;3.95;1.05;;;;;;;;;;4935094;29;20035;-70
2022/04/04 11:35:55;;;;;;;3.80;1.02;;;;;;;;;;4934858;29;20502;-72
2022/04/04 11:38:20;;;;;;;3.90;1.35;;;;;;;;;;4935168;29;20048;-73
2022/04/04 11:40:55;;;;;;;6.45;1.70;;;;;;;;;;4935286;29;20028;-72
2022/04/04 11:43:27;;;;;;;10.57;2.58;;;;;;;;;;4935634;29;20360;-69
2022/04/04 11:45:53;;;;;;;5.18;1.45;;;;;;;;;;4935000;29;20043;-70
2022/04/04 11:48:24;;;;;;;1.70;0.80;;;;;;;;;;4935414;29;20040;-72
2022/04/04 11:50:51;;;;;;;4.80;1.30;;;;;;;;;;4934927;29;20507;-70
2022/04/04 11:53:25;;;;;;;11.57;1.77;;;;;;;;;;4935953;29;20051;-72
2022/04/04 11:55:52;;;;;;;6.45;1.30;;;;;;;;;;4934108;29;20078;-71
2022/04/04 11:58:20;;;;;;;6.47;1.42;;;;;;;;;;4935143;29;20023;-72
2022/04/04 12:00:54;;;;;;;4.38;1.42;;;;;;;;;;4934920;29;20039;-72
2022/04/04 12:03:24;;;;;;;9.35;2.05;;;;;;;;;;4934970;29;20490;-70
2022/04/04 12:05:50;;;;;;;5.55;1.77;;;;;;;;;;4934586;29;20028;-71
2022/04/04 12:08:21;;;;;;;4.30;1.20;;;;;;;;;;4933636;29;20051;-72
2022/04/04 12:10:52;;;;;;;4.97;1.40;;;;;;;;;;4935494;29;20072;-71
2022/04/04 12:13:22;;;;;;;3.25;0.95;;;;;;;;;;4937647;29;20058;-69
2022/04/04 12:15:51;;;;;;;5.35;1.38;;;;;;;;;;4938997;29;20043;-70
2022/04/04 12:18:24;;;;;;;6.18;1.10;;;;;;;;;;4938592;29;20043;-71
2022/04/04 12:20:52;;;;;;;5.23;1.30;;;;;;;;;;4938396;29;20467;-72
2022/04/04 12:26:09;;;;;;;5.50;1.52;;;;;;;;;;4938153;29;20043;-72
2022/04/04 12:28:41;;;;;;;8.48;2.33;;;;;;;;;;4937920;29;20048;-71
2022/04/04 12:31:33;;;;;;;9.30;1.58;;;;;;;;;;4937978;29;20043;-72
2022/04/04 12:34:10;;;;;;;4.90;1.15;;;;;;;;;;4937839;29;20039;-72
2022/04/04 12:36:38;;;;;;;3.67;1.35;;;;;;;;;;4937532;29;20058;-72
2022/04/04 12:39:09;;;;;;;5.68;1.52;;;;;;;;;;4937975;29;20451;-72
2022/04/04 12:41:43;;;;;;;4.90;1.42;;;;;;;;;;4937960;29;20036;-72
2022/04/04 12:44:10;;;;;;;3.40;1.00;;;;;;;;;;4937728;29;20040;-72
2022/04/04 12:46:36;;;;;;;14.40;1.88;;;;;;;;;;4937611;29;20024;-73
2022/04/04 12:49:23;;;;;;;6.05;1.15;;;;;;;;;;4937947;29;21088;-74
2022/04/04 12:51:55;;;;;;;4.25;1.63;;;;;;;;;;4936577;29;20063;-74
2022/04/04 12:54:27;;;;;;;6.73;2.73;;;;;;;;;;4933846;29;20043;-74
2022/04/04 12:56:53;;;;;;;3.72;1.20;;;;;;;;;;4919752;29;20554;-74
2022/04/04 12:59:20;;;;;;;5.03;1.75;;;;;;;;;;4916794;29;20103;-73
2022/04/04 13:02:02;;;;;;;3.72;1.58;;;;;;;;;;4916728;29;20471;-71
2022/04/04 13:04:29;;;;;;;3.78;1.50;;;;;;;;;;4916466;29;20051;-73
2022/04/04 13:06:57;;;;;;;3.95;1.35;;;;;;;;;;4916762;29;20066;-74
2022/04/04 13:09:27;;;;;;;7.40;1.50;;;;;;;;;;4916969;29;20480;-72
2022/04/04 13:11:55;;;;;;;2.65;1.17;;;;;;;;;;4916267;29;20456;-71
2022/04/04 13:14:22;;;;;;;2.13;1.00;;;;;;;;;;4916540;29;20356;-69
2022/04/04 13:16:56;;;;;;;2.53;1.25;;;;;;;;;;4941755;29;20193;-71
2022/04/04 13:19:23;;;;;;;3.63;2.10;;;;;;;;;;4956774;28;20036;-70
2022/04/04 13:21:51;;;;;;;9.88;1.90;;;;;;;;;;4956331;28;20027;-70
2022/04/04 13:24:18;;;;;;;6.43;2.20;;;;;;;;;;4955509;28;20039;-70
2022/04/04 13:26:48;;;;;;;4.88;1.55;;;;;;;;;;4956225;28;20043;-73
2022/04/04 13:29:17;;;;;;;2.70;1.48;;;;;;;;;;4955960;28;20047;-71
2022/04/04 13:31:43;;;;;;;3.50;1.50;;;;;;;;;;4956052;28;20066;-70
2022/04/04 13:34:10;;;;;;;7.28;1.30;;;;;;;;;;4955668;28;20035;-72
2022/04/04 13:36:37;;;;;;;3.35;1.40;;;;;;;;;;4953941;28;20030;-70
2022/04/04 13:39:09;;;;;;;4.07;1.70;;;;;;;;;;4955223;28;20371;-71
2022/04/04 13:41:40;;;;;;;4.53;1.50;;;;;;;;;;4936300;29;20028;-72
2022/04/04 13:44:07;;;;;;;3.78;1.30;;;;;;;;;;4916243;29;20036;-71
2022/04/04 13:46:34;;;;;;;4.82;1.67;;;;;;;;;;4917084;29;20032;-71
2022/04/04 13:49:00;;;;;;;4.70;1.85;;;;;;;;;;4927442;29;20187;-72
2022/04/04 13:51:29;;;;;;;5.35;2.00;;;;;;;;;;4919787;29;20028;-71
2022/04/04 13:54:02;;;;;;;4.70;2.50;;;;;;;;;;4929161;29;20166;-70
2022/04/04 13:56:31;;;;;;;4.70;2.40;;;;;;;;;;4935105;29;20102;-71
2022/04/04 13:58:58;;;;;;;2.85;1.60;;;;;;;;;;4928627;29;20394;-70
2022/04/04 14:01:26;;;;;;;3.75;1.70;;;;;;;;;;4934755;29;20473;-73
2022/04/04 14:03:52;;;;;;;5.97;1.90;;;;;;;;;;4934706;29;20026;-70
2022/04/04 14:06:18;;;;;;;3.03;1.60;;;;;;;;;;4934940;29;20086;-71
2022/04/04 14:08:44;;;;;;;4.13;2.05;;;;;;;;;;4931658;29;20047;-71
2022/04/04 14:11:12;;;;;;;5.53;2.00;;;;;;;;;;4919710;29;20079;-70
2022/04/04 14:13:49;;;;;;;3.03;1.50;;;;;;;;;;4917231;29;20046;-73
2022/04/04 14:16:17;;;;;;;2.70;1.50;;;;;;;;;;4915198;29;20036;-71
2022/04/04 14:18:43;;;;;;;3.55;1.80;;;;;;;;;;4915087;29;20481;-69
2022/04/04 14:21:10;;;;;;;5.43;2.00;;;;;;;;;;4932025;29;20039;-74
2022/04/04 14:23:37;;;;;;;4.90;1.40;;;;;;;;;;4930001;29;20644;-72
2022/04/04 14:26:05;;;;;;;6.10;2.00;;;;;;;;;;4933458;29;20043;-74
2022/04/04 14:28:32;;;;;;;10.73;2.38;;;;;;;;;;4929929;29;20048;-74
2022/04/04 14:30:59;;;;;;;7.50;2.28;;;;;;;;;;4932076;29;20071;-71
2022/04/04 14:33:26;;;;;;;4.82;1.95;;;;;;;;;;4931730;29;20043;-72
2022/04/04 14:35:53;;;;;;;4.78;1.65;;;;;;;;;;4921009;29;20043;-74
2022/04/04 14:38:20;;;;;;;9.57;3.40;;;;;;;;;;4933313;29;20571;-72
2022/04/04 14:40:46;;;;;;;5.13;2.42;;;;;;;;;;4934030;29;20427;-75
2022/04/04 14:43:11;;;;;;;10.00;2.50;;;;;;;;;;4934204;29;20019;-73
2022/04/04 14:45:37;;;;;;;16.73;4.00;;;;;;;;;;4933649;29;20074;-73
2022/04/04 14:48:06;;;;;;;3.85;2.50;;;;;;;;;;4933299;29;20031;-73
2022/04/04 14:50:38;;;;;;;4.97;2.10;;;;;;;;;;4934348;29;20483;-72
2022/04/04 14:53:05;;;;;;;7.90;2.10;;;;;;;;;;4934185;29;20059;-74
2022/04/04 14:55:31;;;;;;;20.05;3.08;;;;;;;;;;4931842;29;20024;-73